createdAt,value
2022-11-16T00:09:35.432Z,12.21
2022-11-16T00:19:38.201Z,12.13
2022-11-16T00:29:42.337Z,12.04
2022-11-16T00:39:44.932Z,12.02
2022-11-16T00:49:48.939Z,12.02
2022-11-16T00:59:51.636Z,11.94
2022-11-16T01:09:55.565Z,11.93
2022-11-16T01:19:58.187Z,11.99
2022-11-16T01:30:02.227Z,11.93
2022-11-16T01:40:05.578Z,12.02
2022-11-16T01:50:14.069Z,12.11
2022-11-16T02:00:18.678Z,12.14
2022-11-16T02:10:34.410Z,12.06
2022-11-16T02:21:02.042Z,11.93
2022-11-16T02:31:10.290Z,11.94
2022-11-16T02:41:16.759Z,11.92
2022-11-16T02:51:22.297Z,11.86
2022-11-16T03:01:31.305Z,11.78
2022-11-16T03:11:54.846Z,11.74
2022-11-16T03:22:01.710Z,11.67
2022-11-16T03:32:14.665Z,11.75
2022-11-16T03:42:18.249Z,11.57
2022-11-16T03:52:22.279Z,11.52
2022-11-16T04:02:24.903Z,11.44
2022-11-16T04:12:46.278Z,11.39
2022-11-16T04:23:10.021Z,11.47
2022-11-16T04:33:31.547Z,11.41
2022-11-16T04:43:34.183Z,11.34
2022-11-16T04:53:38.127Z,11.45
2022-11-16T05:03:40.782Z,11.43
2022-11-16T05:13:44.704Z,11.29
2022-11-16T05:24:04.810Z,11.38
2022-11-16T05:34:09.625Z,11.32
2022-11-16T05:44:12.454Z,11.39
2022-11-16T05:54:19.693Z,11.49
2022-11-16T06:04:24.359Z,11.39
2022-11-16T06:14:28.760Z,11.43
2022-11-16T06:24:31.334Z,11.37
2022-11-16T06:34:35.361Z,11.44
2022-11-16T06:44:37.975Z,11.39
2022-11-16T06:54:41.910Z,11.41
2022-11-16T07:04:44.523Z,11.47
2022-11-16T07:14:48.501Z,11.73
2022-11-16T07:24:51.129Z,11.61
2022-11-16T07:34:56.362Z,11.49
2022-11-16T07:45:00.666Z,11.54
2022-11-16T07:55:05.674Z,11.53
2022-11-16T08:05:08.830Z,11.59
2022-11-16T08:15:14.062Z,11.62
2022-11-16T08:25:16.867Z,11.63
2022-11-16T08:35:21.657Z,11.72
2022-11-16T08:45:24.482Z,11.81
2022-11-16T08:55:28.644Z,11.73
2022-11-16T09:05:31.279Z,11.76
2022-11-16T09:15:35.251Z,11.76
2022-11-16T09:25:37.900Z,11.82
2022-11-16T09:35:42.146Z,11.82
2022-11-16T09:45:53.646Z,11.99
2022-11-16T09:56:01.678Z,12.15
2022-11-16T10:06:07.155Z,12.22
2022-11-16T10:16:19.972Z,12.45
2022-11-16T10:26:29.159Z,12.48
2022-11-16T10:36:36.418Z,12.40
2022-11-16T10:46:44.163Z,12.55
2022-11-16T10:56:50.610Z,12.66
2022-11-16T11:06:55.816Z,12.62
2022-11-16T11:17:12.114Z,12.84
2022-11-16T11:27:21.646Z,12.94
2022-11-16T11:37:30.368Z,12.95
2022-11-16T11:47:59.201Z,13.00
2022-11-16T11:58:06.919Z,12.93
2022-11-16T12:08:22.527Z,12.96
2022-11-16T12:18:42.411Z,13.80
2022-11-16T12:28:56.454Z,15.61
2022-11-16T12:39:14.747Z,13.95
2022-11-16T12:49:50.167Z,13.55
2022-11-16T13:00:06.708Z,13.66
2022-11-16T13:10:17.026Z,13.67
2022-11-16T13:20:36.351Z,13.40
2022-11-16T13:30:47.891Z,13.07
2022-11-16T13:40:51.940Z,14.24
2022-11-16T13:50:56.506Z,15.07
2022-11-16T14:01:04.570Z,14.98
2022-11-16T14:11:29.521Z,14.47
2022-11-16T14:21:48.640Z,13.92
2022-11-16T14:31:54.352Z,13.44
2022-11-16T14:42:01.578Z,13.02
2022-11-16T14:52:08.153Z,12.80
2022-11-16T15:02:20.037Z,12.52
2022-11-16T15:12:49.361Z,12.00
2022-11-16T15:22:55.022Z,11.64
2022-11-16T15:32:58.301Z,11.34
2022-11-16T15:43:05.429Z,11.17
2022-11-16T15:53:36.719Z,10.78
2022-11-16T16:03:55.099Z,10.71
2022-11-16T16:14:00.092Z,10.45
2022-11-16T16:24:04.105Z,10.22
2022-11-16T16:34:12.059Z,10.09
2022-11-16T16:44:17.044Z,9.98
2022-11-16T16:54:19.641Z,10.01
2022-11-16T17:04:23.706Z,9.90
2022-11-16T17:14:26.361Z,9.86
2022-11-16T17:24:30.557Z,9.92
2022-11-16T17:34:33.196Z,9.78
2022-11-16T17:44:37.135Z,9.62
2022-11-16T17:54:39.706Z,9.57
2022-11-16T18:04:48.131Z,9.62
2022-11-16T18:15:21.393Z,9.47
2022-11-16T18:25:17.469Z,9.45
2022-11-16T18:35:20.086Z,9.39
2022-11-16T18:45:24.046Z,9.41
2022-11-16T18:55:26.691Z,9.44
2022-11-16T19:05:30.765Z,9.30
2022-11-16T19:15:33.536Z,9.25
2022-11-16T19:25:37.875Z,9.45
2022-11-16T19:35:40.539Z,9.35
2022-11-16T19:45:44.537Z,9.32
2022-11-16T19:55:54.037Z,9.27
2022-11-16T20:06:06.963Z,9.18
2022-11-16T20:16:11.327Z,9.22
2022-11-16T20:26:16.032Z,9.24
2022-11-16T20:36:19.519Z,9.20
2022-11-16T20:46:25.675Z,9.24
2022-11-16T20:56:28.719Z,9.21
2022-11-16T21:06:33.698Z,8.95
2022-11-16T21:16:36.509Z,9.23
2022-11-16T21:26:40.486Z,8.93
2022-11-16T21:36:43.202Z,8.98
2022-11-16T21:46:47.217Z,8.91
2022-11-16T21:56:49.883Z,8.97
2022-11-16T22:07:11.683Z,9.15
2022-11-16T22:17:14.310Z,9.33
2022-11-16T22:27:19.111Z,9.05
2022-11-16T22:37:21.736Z,9.09
2022-11-16T22:47:25.787Z,9.14
2022-11-16T22:57:28.484Z,9.07
2022-11-16T23:07:32.600Z,8.93
2022-11-16T23:17:35.361Z,8.86
2022-11-16T23:27:43.141Z,8.88
2022-11-16T23:37:53.816Z,8.66
2022-11-16T23:47:57.708Z,8.74
2022-11-16T23:58:00.764Z,8.68
